Terminal Aerodrome Forecast
Issued by NWS

Home | Current Version | Previous Version | Text Only | Print | Product List | Glossary On
Versions: 1 2 3 4 5 6 7 8 9 10 11 12 13 14 15 16 17 18 19 20 21
558
FTUS41 KCAR 280520
TAFHUL
TAF
KHUL 280520Z 2806/2906 11003KT 2SM -SHSN BR OVC015
     FM280700 11003KT 3SM BR OVC015
     FM281700 14005KT 3SM -RASN OVC012
     FM290000 13005KT 2SM -SN OVC008
     FM290400 VRB03KT 2SM BR OVC008=

USA.gov is the U.S. government's official web portal to all federal, state and local government web resources and services.